PWSweather.com
Personal Weather Stations
Station Observations
LABLIDAR
PotenzaIT

PotenzaIT

Lat: 40.6467, Lon: 15.809

Elevation: 2395

Station Type: Oregon WMRS200

High Low Average
Temperature 60.2°F15.7°C 54.5°F12.5°C 56.5°F13.6°C
Dew Point 34.7°F1.5°C 31.1°F-0.5°C 33.1°F0.6°C
Winds 4.8 mph 7.7 kmh Calm Calm 2.0 mph SSE3.2 kmh SSE
Wind Gusts 9.6 mph15.4 kmh -- 5.0 mph8.0 kmh
Humidity 45% 38% 41%
Pressure 27.67 in937.0 mb 27.58 in934.0 mb -
Precipitation 0.00 in0.0 mm - -
Hour Temp Dew Point Humidity Winds Wind Gusts Pressure Precip Precip Rate Daily Precip Total
12:04 AM 60.2°F15.7°C 34.5°F1.4°C 38% 1.8 mph NW2.9 kmh NW 3.4 mph5.5 kmh 27.64 in936.0 mb 0.00 in0.0 mm 0.00 in/hr0.0 mm/hr 0.00 in0.0 mm
12:09 AM 60.1°F15.6°C 34.4°F1.3°C 38% 2.0 mph NE3.2 kmh NE 3.4 mph5.5 kmh 27.64 in936.0 mb 0.00 in0.0 mm 0.00 in/hr0.0 mm/hr 0.00 in0.0 mm
12:14 AM 59.9°F15.5°C 34.4°F1.3°C 39% 0.8 mph NNW1.3 kmh NNW 2.9 mph4.7 kmh 27.67 in937.0 mb 0.00 in0.0 mm 0.00 in/hr0.0 mm/hr 0.00 in0.0 mm
12:19 AM 59.7°F15.4°C 34.7°F1.5°C 39% 0.3 mph N0.5 kmh N 2.7 mph4.3 kmh 27.67 in937.0 mb 0.00 in0.0 mm 0.00 in/hr0.0 mm/hr 0.00 in0.0 mm
12:24 AM 59.6°F15.3°C 34.6°F1.4°C 39% 0.5 mph NW0.8 kmh NW 3.6 mph5.8 kmh 27.67 in937.0 mb 0.00 in0.0 mm 0.00 in/hr0.0 mm/hr 0.00 in0.0 mm
12:29 AM 59.4°F15.2°C 34.5°F1.4°C 39% Calm Calm 3.6 mph5.8 kmh 27.67 in937.0 mb 0.00 in0.0 mm 0.00 in/hr0.0 mm/hr 0.00 in0.0 mm
12:34 AM 59.3°F15.2°C 34.4°F1.3°C 39% Calm Calm 1.1 mph1.8 kmh 27.67 in937.0 mb 0.00 in0.0 mm 0.00 in/hr0.0 mm/hr 0.00 in0.0 mm
12:39 AM 59.2°F15.1°C 34.3°F1.3°C 39% 0.4 mph W0.6 kmh W 1.1 mph1.8 kmh 27.67 in937.0 mb 0.00 in0.0 mm 0.00 in/hr0.0 mm/hr 0.00 in0.0 mm
12:44 AM 59.1°F15.1°C 34.5°F1.4°C 40% Calm Calm 1.1 mph1.8 kmh 27.64 in936.0 mb 0.00 in0.0 mm 0.00 in/hr0.0 mm/hr 0.00 in0.0 mm
12:49 AM 58.9°F14.9°C 34.6°F1.4°C 40% Calm Calm 1.1 mph1.8 kmh 27.64 in936.0 mb 0.00 in0.0 mm 0.00 in/hr0.0 mm/hr 0.00 in0.0 mm
12:54 AM 58.8°F14.9°C 34.5°F1.4°C 40% Calm Calm -- 27.64 in936.0 mb 0.00 in0.0 mm 0.00 in/hr0.0 mm/hr 0.00 in0.0 mm
12:59 AM 58.6°F14.8°C 34.4°F1.3°C 40% Calm Calm -- 27.61 in935.0 mb 0.00 in0.0 mm 0.00 in/hr0.0 mm/hr 0.00 in0.0 mm
01:04 AM 58.5°F14.7°C 34.3°F1.3°C 40% Calm Calm -- 27.61 in935.0 mb 0.00 in0.0 mm 0.00 in/hr0.0 mm/hr 0.00 in0.0 mm
01:09 AM 58.3°F14.6°C 34.1°F1.2°C 40% Calm Calm -- 27.61 in935.0 mb 0.00 in0.0 mm 0.00 in/hr0.0 mm/hr 0.00 in0.0 mm
01:14 AM 58.1°F14.5°C 34.0°F1.1°C 40% 0.3 mph NNW0.5 kmh NNW 2.0 mph3.2 kmh 27.61 in935.0 mb 0.00 in0.0 mm 0.00 in/hr0.0 mm/hr 0.00 in0.0 mm
01:19 AM 58.0°F14.4°C 34.2°F1.2°C 41% Calm Calm 2.0 mph3.2 kmh 27.61 in935.0 mb 0.00 in0.0 mm 0.00 in/hr0.0 mm/hr 0.00 in0.0 mm
01:24 AM 57.9°F14.4°C 34.3°F1.3°C 41% 0.3 mph N0.5 kmh N 2.0 mph3.2 kmh 27.61 in935.0 mb 0.00 in0.0 mm 0.00 in/hr0.0 mm/hr 0.00 in0.0 mm
01:29 AM 57.7°F14.3°C 34.2°F1.2°C 41% 1.5 mph NE2.4 kmh NE 3.4 mph5.5 kmh 27.61 in935.0 mb 0.00 in0.0 mm 0.00 in/hr0.0 mm/hr 0.00 in0.0 mm
01:34 AM 57.6°F14.2°C 34.1°F1.2°C 41% 2.1 mph NE3.4 kmh NE 3.4 mph5.5 kmh 27.61 in935.0 mb 0.00 in0.0 mm 0.00 in/hr0.0 mm/hr 0.00 in0.0 mm
01:39 AM 57.4°F14.1°C 33.9°F1.1°C 41% 2.0 mph N3.2 kmh N 3.6 mph5.8 kmh 27.61 in935.0 mb 0.00 in0.0 mm 0.00 in/hr0.0 mm/hr 0.00 in0.0 mm
01:44 AM 57.3°F14.1°C 33.8°F1.0°C 41% 2.4 mph WSW3.9 kmh WSW 5.4 mph8.7 kmh 27.61 in935.0 mb 0.00 in0.0 mm 0.00 in/hr0.0 mm/hr 0.00 in0.0 mm
01:49 AM 57.2°F14.0°C 33.7°F0.9°C 41% 2.5 mph NE4.0 kmh NE 5.4 mph8.7 kmh 27.61 in935.0 mb 0.00 in0.0 mm 0.00 in/hr0.0 mm/hr 0.00 in0.0 mm
01:54 AM 57.1°F13.9°C 33.6°F0.9°C 41% 3.1 mph NE5.0 kmh NE 5.6 mph9.0 kmh 27.61 in935.0 mb 0.00 in0.0 mm 0.00 in/hr0.0 mm/hr 0.00 in0.0 mm
01:59 AM 56.9°F13.8°C 33.5°F0.8°C 41% 3.3 mph NNE5.3 kmh NNE 6.0 mph9.7 kmh 27.58 in934.0 mb 0.00 in0.0 mm 0.00 in/hr0.0 mm/hr 0.00 in0.0 mm
02:04 AM 56.8°F13.8°C 33.4°F0.8°C 41% 3.4 mph NE5.5 kmh NE 6.3 mph10.1 kmh 27.58 in934.0 mb 0.00 in0.0 mm 0.00 in/hr0.0 mm/hr 0.00 in0.0 mm
02:09 AM 56.8°F13.8°C 32.9°F0.5°C 40% 4.2 mph NNE6.8 kmh NNE 6.9 mph11.1 kmh 27.58 in934.0 mb 0.00 in0.0 mm 0.00 in/hr0.0 mm/hr 0.00 in0.0 mm
02:14 AM 56.7°F13.7°C 32.6°F0.3°C 40% 3.3 mph NW5.3 kmh NW 6.9 mph11.1 kmh 27.64 in936.0 mb 0.00 in0.0 mm 0.00 in/hr0.0 mm/hr 0.00 in0.0 mm
02:19 AM 56.7°F13.7°C 32.6°F0.3°C 40% 4.8 mph N7.7 kmh N 8.5 mph13.7 kmh 27.64 in936.0 mb 0.00 in0.0 mm 0.00 in/hr0.0 mm/hr 0.00 in0.0 mm
02:24 AM 56.6°F13.7°C 32.6°F0.3°C 40% 4.3 mph N6.9 kmh N 8.5 mph13.7 kmh 27.64 in936.0 mb 0.00 in0.0 mm 0.00 in/hr0.0 mm/hr 0.00 in0.0 mm
02:29 AM 56.5°F13.6°C 32.5°F0.3°C 40% 3.4 mph N5.5 kmh N 8.1 mph13.0 kmh 27.61 in935.0 mb 0.00 in0.0 mm 0.00 in/hr0.0 mm/hr 0.00 in0.0 mm
02:34 AM 56.5°F13.6°C 32.3°F0.2°C 40% 3.9 mph NE6.3 kmh NE 8.1 mph13.0 kmh 27.61 in935.0 mb 0.00 in0.0 mm 0.00 in/hr0.0 mm/hr 0.00 in0.0 mm
02:39 AM 56.3°F13.5°C 31.7°F-0.2°C 39% 2.5 mph NNE4.0 kmh NNE 7.8 mph12.6 kmh 27.61 in935.0 mb 0.00 in0.0 mm 0.00 in/hr0.0 mm/hr 0.00 in0.0 mm
02:44 AM 56.3°F13.5°C 31.7°F-0.2°C 39% 2.8 mph SW4.5 kmh SW 4.9 mph7.9 kmh 27.64 in936.0 mb 0.00 in0.0 mm 0.00 in/hr0.0 mm/hr 0.00 in0.0 mm
02:49 AM 56.3°F13.5°C 31.7°F-0.2°C 39% 3.6 mph N5.8 kmh N 7.4 mph11.9 kmh 27.64 in936.0 mb 0.00 in0.0 mm 0.00 in/hr0.0 mm/hr 0.00 in0.0 mm
02:54 AM 56.2°F13.4°C 31.6°F-0.2°C 39% 3.1 mph N5.0 kmh N 7.4 mph11.9 kmh 27.64 in936.0 mb 0.00 in0.0 mm 0.00 in/hr0.0 mm/hr 0.00 in0.0 mm
02:59 AM 56.1°F13.4°C 31.5°F-0.3°C 39% 2.2 mph NNE3.5 kmh NNE 7.4 mph11.9 kmh 27.64 in936.0 mb 0.00 in0.0 mm 0.00 in/hr0.0 mm/hr 0.00 in0.0 mm
03:04 AM 56.0°F13.3°C 31.4°F-0.3°C 39% 2.5 mph NW4.0 kmh NW 4.9 mph7.9 kmh 27.64 in936.0 mb 0.00 in0.0 mm 0.00 in/hr0.0 mm/hr 0.00 in0.0 mm
03:09 AM 55.9°F13.3°C 31.4°F-0.3°C 39% 2.6 mph NW4.2 kmh NW 6.7 mph10.8 kmh 27.64 in936.0 mb 0.00 in0.0 mm 0.00 in/hr0.0 mm/hr 0.00 in0.0 mm
03:14 AM 55.9°F13.3°C 31.4°F-0.3°C 39% 2.4 mph NNE3.9 kmh NNE 6.7 mph10.8 kmh 27.64 in936.0 mb 0.00 in0.0 mm 0.00 in/hr0.0 mm/hr 0.00 in0.0 mm
03:19 AM 55.9°F13.3°C 31.3°F-0.4°C 39% 3.1 mph NNE5.0 kmh NNE 6.3 mph10.1 kmh 27.64 in936.0 mb 0.00 in0.0 mm 0.00 in/hr0.0 mm/hr 0.00 in0.0 mm
03:24 AM 55.8°F13.2°C 31.2°F-0.4°C 39% 3.0 mph NW4.8 kmh NW 5.8 mph9.3 kmh 27.64 in936.0 mb 0.00 in0.0 mm 0.00 in/hr0.0 mm/hr 0.00 in0.0 mm
03:29 AM 55.7°F13.2°C 31.2°F-0.4°C 39% 2.2 mph NE3.5 kmh NE 5.8 mph9.3 kmh 27.61 in935.0 mb 0.00 in0.0 mm 0.00 in/hr0.0 mm/hr 0.00 in0.0 mm
03:34 AM 55.6°F13.1°C 31.1°F-0.5°C 39% 2.2 mph NE3.5 kmh NE 4.3 mph6.9 kmh 27.61 in935.0 mb 0.00 in0.0 mm 0.00 in/hr0.0 mm/hr 0.00 in0.0 mm
03:39 AM 55.6°F13.1°C 31.4°F-0.3°C 40% 1.7 mph N2.7 kmh N 4.3 mph6.9 kmh 27.61 in935.0 mb 0.00 in0.0 mm 0.00 in/hr0.0 mm/hr 0.00 in0.0 mm
03:44 AM 55.6°F13.1°C 31.7°F-0.2°C 40% 2.1 mph N3.4 kmh N 3.8 mph6.1 kmh 27.61 in935.0 mb 0.00 in0.0 mm 0.00 in/hr0.0 mm/hr 0.00 in0.0 mm
03:49 AM 55.4°F13.0°C 31.5°F-0.3°C 40% 3.5 mph N5.6 kmh N 4.9 mph7.9 kmh 27.61 in935.0 mb 0.00 in0.0 mm 0.00 in/hr0.0 mm/hr 0.00 in0.0 mm
03:54 AM 55.4°F13.0°C 31.5°F-0.3°C 40% 2.2 mph N3.5 kmh N 4.9 mph7.9 kmh 27.61 in935.0 mb 0.00 in0.0 mm 0.00 in/hr0.0 mm/hr 0.00 in0.0 mm
03:59 AM 55.2°F12.9°C 31.3°F-0.4°C 40% 2.9 mph SSW4.7 kmh SSW 4.7 mph7.6 kmh 27.61 in935.0 mb 0.00 in0.0 mm 0.00 in/hr0.0 mm/hr 0.00 in0.0 mm
04:04 AM 55.2°F12.9°C 31.8°F-0.1°C 41% 2.4 mph NNW3.9 kmh NNW 9.6 mph15.4 kmh 27.61 in935.0 mb 0.00 in0.0 mm 0.00 in/hr0.0 mm/hr 0.00 in0.0 mm
04:09 AM 55.1°F12.8°C 31.8°F-0.1°C 41% 3.0 mph NNE4.8 kmh NNE 9.6 mph15.4 kmh 27.61 in935.0 mb 0.00 in0.0 mm 0.00 in/hr0.0 mm/hr 0.00 in0.0 mm
04:14 AM 55.0°F12.8°C 31.8°F-0.1°C 41% 3.2 mph N5.1 kmh N 6.5 mph10.5 kmh 27.61 in935.0 mb 0.00 in0.0 mm 0.00 in/hr0.0 mm/hr 0.00 in0.0 mm
04:19 AM 54.9°F12.7°C 31.6°F-0.2°C 41% 3.0 mph N4.8 kmh N 6.5 mph10.5 kmh 27.61 in935.0 mb 0.00 in0.0 mm 0.00 in/hr0.0 mm/hr 0.00 in0.0 mm
04:24 AM 54.9°F12.7°C 32.0°F0.0°C 42% 2.5 mph E4.0 kmh E 5.4 mph8.7 kmh 27.61 in935.0 mb 0.00 in0.0 mm 0.00 in/hr0.0 mm/hr 0.00 in0.0 mm
04:29 AM 54.9°F12.7°C 32.2°F0.1°C 42% 2.2 mph N3.5 kmh N 5.8 mph9.3 kmh 27.61 in935.0 mb 0.00 in0.0 mm 0.00 in/hr0.0 mm/hr 0.00 in0.0 mm
04:34 AM 54.7°F12.6°C 32.1°F0.1°C 42% 3.3 mph N5.3 kmh N 6.0 mph9.7 kmh 27.61 in935.0 mb 0.00 in0.0 mm 0.00 in/hr0.0 mm/hr 0.00 in0.0 mm
04:39 AM 54.7°F12.6°C 32.1°F0.1°C 42% 2.9 mph N4.7 kmh N 8.7 mph14.0 kmh 27.61 in935.0 mb 0.00 in0.0 mm 0.00 in/hr0.0 mm/hr 0.00 in0.0 mm
04:44 AM 54.7°F12.6°C 32.6°F0.3°C 43% 3.0 mph NNW4.8 kmh NNW 8.7 mph14.0 kmh 27.61 in935.0 mb 0.00 in0.0 mm 0.00 in/hr0.0 mm/hr 0.00 in0.0 mm
04:49 AM 54.7°F12.6°C 32.6°F0.3°C 43% 3.5 mph WNW5.6 kmh WNW 8.1 mph13.0 kmh 27.61 in935.0 mb 0.00 in0.0 mm 0.00 in/hr0.0 mm/hr 0.00 in0.0 mm
04:54 AM 54.6°F12.6°C 32.6°F0.3°C 43% 4.5 mph NNE7.2 kmh NNE 8.1 mph13.0 kmh 27.61 in935.0 mb 0.00 in0.0 mm 0.00 in/hr0.0 mm/hr 0.00 in0.0 mm
04:59 AM 54.5°F12.5°C 33.0°F0.6°C 44% 3.3 mph NNE5.3 kmh NNE 7.8 mph12.6 kmh 27.61 in935.0 mb 0.00 in0.0 mm 0.00 in/hr0.0 mm/hr 0.00 in0.0 mm
05:04 AM 54.5°F12.5°C 33.1°F0.6°C 44% 3.5 mph NW5.6 kmh NW 6.7 mph10.8 kmh 27.61 in935.0 mb 0.00 in0.0 mm 0.00 in/hr0.0 mm/hr 0.00 in0.0 mm
05:09 AM 54.5°F12.5°C 33.1°F0.6°C 44% 2.4 mph ESE3.9 kmh ESE 5.6 mph9.0 kmh 27.61 in935.0 mb 0.00 in0.0 mm 0.00 in/hr0.0 mm/hr 0.00 in0.0 mm
05:14 AM 54.5°F12.5°C 33.1°F0.6°C 44% 3.4 mph NNE5.5 kmh NNE 6.3 mph10.1 kmh 27.61 in935.0 mb 0.00 in0.0 mm 0.00 in/hr0.0 mm/hr 0.00 in0.0 mm
05:19 AM 54.5°F12.5°C 33.6°F0.9°C 45% 3.4 mph NNE5.5 kmh NNE 6.3 mph10.1 kmh 27.61 in935.0 mb 0.00 in0.0 mm 0.00 in/hr0.0 mm/hr 0.00 in0.0 mm
05:24 AM 54.5°F12.5°C 33.6°F0.9°C 45% 2.9 mph SW4.7 kmh SW 5.8 mph9.3 kmh 27.61 in935.0 mb 0.00 in0.0 mm 0.00 in/hr0.0 mm/hr 0.00 in0.0 mm
05:29 AM 54.5°F12.5°C 33.6°F0.9°C 45% 2.0 mph NE3.2 kmh NE 6.0 mph9.7 kmh 27.61 in935.0 mb 0.00 in0.0 mm 0.00 in/hr0.0 mm/hr 0.00 in0.0 mm
05:34 AM 54.5°F12.5°C 33.6°F0.9°C 45% 3.2 mph E5.1 kmh E 6.0 mph9.7 kmh 27.61 in935.0 mb 0.00 in0.0 mm 0.00 in/hr0.0 mm/hr 0.00 in0.0 mm
05:39 AM 55.3°F12.9°C 34.4°F1.3°C 45% 3.3 mph NE5.3 kmh NE 5.8 mph9.3 kmh 27.61 in935.0 mb 0.00 in0.0 mm 0.00 in/hr0.0 mm/hr 0.00 in0.0 mm
05:44 AM 56.1°F13.4°C 34.6°F1.4°C 44% 4.2 mph NNE6.8 kmh NNE 6.5 mph10.5 kmh 27.61 in935.0 mb 0.00 in0.0 mm 0.00 in/hr0.0 mm/hr 0.00 in0.0 mm
05:49 AM 56.0°F13.3°C 34.4°F1.3°C 44% 3.6 mph N5.8 kmh N 6.5 mph10.5 kmh 27.61 in935.0 mb 0.00 in0.0 mm 0.00 in/hr0.0 mm/hr 0.00 in0.0 mm
05:54 AM 55.8°F13.2°C 34.5°F1.4°C 45% 4.0 mph NW6.4 kmh NW 7.2 mph11.6 kmh 27.61 in935.0 mb 0.00 in0.0 mm 0.00 in/hr0.0 mm/hr 0.00 in0.0 mm
05:59 AM 55.7°F13.2°C 34.7°F1.5°C 45% 4.2 mph NNE6.8 kmh NNE 7.2 mph11.6 kmh 27.61 in935.0 mb 0.00 in0.0 mm 0.00 in/hr0.0 mm/hr 0.00 in0.0 mm
06:04 AM 55.6°F13.1°C 34.6°F1.4°C 45% 3.4 mph NW5.5 kmh NW 7.2 mph11.6 kmh 27.61 in935.0 mb 0.00 in0.0 mm 0.00 in/hr0.0 mm/hr 0.00 in0.0 mm
06:09 AM 55.6°F13.1°C 34.6°F1.4°C 45% 4.3 mph N6.9 kmh N 7.2 mph11.6 kmh 27.61 in935.0 mb 0.00 in0.0 mm 0.00 in/hr0.0 mm/hr 0.00 in0.0 mm
06:14 AM 55.6°F13.1°C 34.6°F1.4°C 45% 5.0 mph N8.0 kmh N 7.6 mph12.2 kmh 27.61 in935.0 mb 0.00 in0.0 mm 0.00 in/hr0.0 mm/hr 0.00 in0.0 mm
06:19 AM 55.7°F13.2°C 35.2°F1.8°C 46% 5.8 mph NE9.3 kmh NE 9.6 mph15.4 kmh 27.61 in935.0 mb 0.00 in0.0 mm 0.00 in/hr0.0 mm/hr 0.00 in0.0 mm
06:24 AM 55.8°F13.2°C 35.3°F1.8°C 46% 5.3 mph NE8.5 kmh NE 10.3 mph16.6 kmh 27.61 in935.0 mb 0.00 in0.0 mm 0.00 in/hr0.0 mm/hr 0.00 in0.0 mm
06:29 AM 55.9°F13.3°C 35.4°F1.9°C 46% 5.2 mph NNE8.4 kmh NNE 10.3 mph16.6 kmh 27.61 in935.0 mb 0.00 in0.0 mm 0.00 in/hr0.0 mm/hr 0.00 in0.0 mm
06:34 AM 56.0°F13.3°C 35.5°F1.9°C 46% 5.0 mph N8.0 kmh N 9.4 mph15.1 kmh 27.61 in935.0 mb 0.00 in0.0 mm 0.00 in/hr0.0 mm/hr 0.00 in0.0 mm
06:39 AM 56.1°F13.4°C 35.7°F2.1°C 46% 5.7 mph N9.2 kmh N 10.1 mph16.3 kmh 27.61 in935.0 mb 0.00 in0.0 mm 0.00 in/hr0.0 mm/hr 0.00 in0.0 mm
06:44 AM 56.3°F13.5°C 35.8°F2.1°C 46% 5.8 mph NE9.3 kmh NE 10.1 mph16.3 kmh 27.61 in935.0 mb 0.00 in0.0 mm 0.00 in/hr0.0 mm/hr 0.00 in0.0 mm
06:49 AM 56.5°F13.6°C 35.9°F2.2°C 46% 4.5 mph NNW7.2 kmh NNW 9.8 mph15.8 kmh 27.61 in935.0 mb 0.00 in0.0 mm 0.00 in/hr0.0 mm/hr 0.00 in0.0 mm
06:54 AM 56.7°F13.7°C 36.1°F2.3°C 46% 5.7 mph N9.2 kmh N 10.7 mph17.2 kmh 27.61 in935.0 mb 0.00 in0.0 mm 0.00 in/hr0.0 mm/hr 0.00 in0.0 mm
06:59 AM 56.8°F13.8°C 36.3°F2.4°C 46% 6.6 mph NNE10.6 kmh NNE 10.7 mph17.2 kmh 27.58 in934.0 mb 0.00 in0.0 mm 0.00 in/hr0.0 mm/hr 0.00 in0.0 mm
07:04 AM 57.0°F13.9°C 36.5°F2.5°C 46% 5.5 mph N8.9 kmh N 10.1 mph16.3 kmh 27.58 in934.0 mb 0.00 in0.0 mm 0.00 in/hr0.0 mm/hr 0.00 in0.0 mm
07:09 AM 57.3°F14.1°C 36.7°F2.6°C 46% 6.0 mph NNW9.7 kmh NNW 9.6 mph15.4 kmh 27.58 in934.0 mb 0.00 in0.0 mm 0.00 in/hr0.0 mm/hr 0.00 in0.0 mm
07:14 AM 57.5°F14.2°C 36.5°F2.5°C 45% 5.6 mph NW9.0 kmh NW 11.0 mph17.7 kmh 27.58 in934.0 mb 0.00 in0.0 mm 0.00 in/hr0.0 mm/hr 0.00 in0.0 mm
07:19 AM 57.8°F14.3°C 36.6°F2.6°C 45% 6.3 mph N10.1 kmh N 11.0 mph17.7 kmh 27.58 in934.0 mb 0.00 in0.0 mm 0.00 in/hr0.0 mm/hr 0.00 in0.0 mm
07:24 AM 58.0°F14.4°C 36.8°F2.7°C 45% 5.8 mph N9.3 kmh N 11.0 mph17.7 kmh 27.58 in934.0 mb 0.00 in0.0 mm 0.00 in/hr0.0 mm/hr 0.00 in0.0 mm
07:29 AM 58.4°F14.7°C 37.1°F2.8°C 45% 6.1 mph NNW9.8 kmh NNW 11.0 mph17.7 kmh 27.58 in934.0 mb 0.00 in0.0 mm 0.00 in/hr0.0 mm/hr 0.00 in0.0 mm
07:34 AM 58.7°F14.8°C 37.4°F3.0°C 45% 5.9 mph NE9.5 kmh NE 12.5 mph20.1 kmh 27.58 in934.0 mb 0.00 in0.0 mm 0.00 in/hr0.0 mm/hr 0.00 in0.0 mm
07:39 AM 59.0°F15.0°C 37.6°F3.1°C 44% 5.7 mph NW9.2 kmh NW 12.5 mph20.1 kmh 27.58 in934.0 mb 0.00 in0.0 mm 0.00 in/hr0.0 mm/hr 0.00 in0.0 mm
07:44 AM 59.3°F15.2°C 37.4°F3.0°C 44% 4.9 mph N7.9 kmh N 10.1 mph16.3 kmh 27.58 in934.0 mb 0.00 in0.0 mm 0.00 in/hr0.0 mm/hr 0.00 in0.0 mm
07:49 AM 59.6°F15.3°C 37.7°F3.2°C 44% 5.6 mph NNW9.0 kmh NNW 10.1 mph16.3 kmh 27.58 in934.0 mb 0.00 in0.0 mm 0.00 in/hr0.0 mm/hr 0.00 in0.0 mm
07:54 AM 60.0°F15.6°C 38.0°F3.3°C 44% 4.7 mph N7.6 kmh N 9.8 mph15.8 kmh 27.58 in934.0 mb 0.00 in0.0 mm 0.00 in/hr0.0 mm/hr 0.00 in0.0 mm
07:59 AM 60.4°F15.8°C 38.4°F3.6°C 44% 4.1 mph N6.6 kmh N 8.1 mph13.0 kmh 27.58 in934.0 mb 0.00 in0.0 mm 0.00 in/hr0.0 mm/hr 0.00 in0.0 mm
08:04 AM 60.7°F15.9°C 38.5°F3.6°C 43% 4.6 mph N7.4 kmh N 8.7 mph14.0 kmh 27.58 in934.0 mb 0.00 in0.0 mm 0.00 in/hr0.0 mm/hr 0.00 in0.0 mm
08:09 AM 61.1°F16.2°C 38.5°F3.6°C 43% 4.4 mph N7.1 kmh N 9.6 mph15.4 kmh 27.58 in934.0 mb 0.00 in0.0 mm 0.00 in/hr0.0 mm/hr 0.00 in0.0 mm
08:14 AM 61.5°F16.4°C 38.2°F3.4°C 42% 4.9 mph N7.9 kmh N 9.6 mph15.4 kmh 27.58 in934.0 mb 0.00 in0.0 mm 0.00 in/hr0.0 mm/hr 0.00 in0.0 mm
08:19 AM 61.8°F16.6°C 38.5°F3.6°C 42% 6.2 mph NW10.0 kmh NW 12.8 mph20.6 kmh 27.58 in934.0 mb 0.00 in0.0 mm 0.00 in/hr0.0 mm/hr 0.00 in0.0 mm
08:24 AM 62.2°F16.8°C 38.5°F3.6°C 41% 6.2 mph NW10.0 kmh NW 12.8 mph20.6 kmh 27.58 in934.0 mb 0.00 in0.0 mm 0.00 in/hr0.0 mm/hr 0.00 in0.0 mm
08:29 AM 62.5°F16.9°C 38.5°F3.6°C 41% 5.3 mph NNW8.5 kmh NNW 12.1 mph19.5 kmh 27.58 in934.0 mb 0.00 in0.0 mm 0.00 in/hr0.0 mm/hr 0.00 in0.0 mm
08:34 AM 62.8°F17.1°C 38.3°F3.5°C 40% 6.0 mph NW9.7 kmh NW 12.1 mph19.5 kmh 27.58 in934.0 mb 0.00 in0.0 mm 0.00 in/hr0.0 mm/hr 0.00 in0.0 mm
08:39 AM 63.1°F17.3°C 38.4°F3.6°C 40% 4.6 mph SW7.4 kmh SW 11.0 mph17.7 kmh 27.58 in934.0 mb 0.00 in0.0 mm 0.00 in/hr0.0 mm/hr 0.00 in0.0 mm
08:44 AM 63.5°F17.5°C 38.7°F3.7°C 40% 4.0 mph N6.4 kmh N 11.0 mph17.7 kmh 27.55 in933.0 mb 0.00 in0.0 mm 0.00 in/hr0.0 mm/hr 0.00 in0.0 mm
08:49 AM 63.8°F17.7°C 38.6°F3.7°C 39% 5.3 mph N8.5 kmh N 12.3 mph19.8 kmh 27.55 in933.0 mb 0.00 in0.0 mm 0.00 in/hr0.0 mm/hr 0.00 in0.0 mm
08:54 AM 64.1°F17.8°C 38.6°F3.7°C 39% 4.5 mph SW7.2 kmh SW 12.3 mph19.8 kmh 27.55 in933.0 mb 0.00 in0.0 mm 0.00 in/hr0.0 mm/hr 0.00 in0.0 mm
08:59 AM 64.4°F18.0°C 38.8°F3.8°C 38% 4.6 mph NNE7.4 kmh NNE 10.7 mph17.2 kmh 27.55 in933.0 mb 0.00 in0.0 mm 0.00 in/hr0.0 mm/hr 0.00 in0.0 mm
09:04 AM 64.7°F18.2°C 38.6°F3.7°C 38% 5.6 mph W9.0 kmh W 10.7 mph17.2 kmh 27.55 in933.0 mb 0.00 in0.0 mm 0.00 in/hr0.0 mm/hr 0.00 in0.0 mm
09:09 AM 65.0°F18.3°C 38.8°F3.8°C 38% 4.2 mph WNW6.8 kmh WNW 10.5 mph16.9 kmh 27.55 in933.0 mb 0.00 in0.0 mm 0.00 in/hr0.0 mm/hr 0.00 in0.0 mm
09:14 AM 65.4°F18.6°C 39.2°F4.0°C 38% 4.5 mph NNE7.2 kmh NNE 8.5 mph13.7 kmh 27.55 in933.0 mb 0.00 in0.0 mm 0.00 in/hr0.0 mm/hr 0.00 in0.0 mm
09:19 AM 65.7°F18.7°C 39.4°F4.1°C 38% 3.8 mph N6.1 kmh N 8.5 mph13.7 kmh 27.55 in933.0 mb 0.00 in0.0 mm 0.00 in/hr0.0 mm/hr 0.00 in0.0 mm
09:24 AM 66.0°F18.9°C 39.0°F3.9°C 37% 6.0 mph ESE9.7 kmh ESE 10.5 mph16.9 kmh 27.55 in933.0 mb 0.00 in0.0 mm 0.00 in/hr0.0 mm/hr 0.00 in0.0 mm
09:29 AM 66.3°F19.1°C 39.3°F4.1°C 37% 5.3 mph W8.5 kmh W 12.5 mph20.1 kmh 27.52 in931.9 mb 0.00 in0.0 mm 0.00 in/hr0.0 mm/hr 0.00 in0.0 mm
09:34 AM 66.6°F19.2°C 39.4°F4.1°C 36% 4.4 mph SE7.1 kmh SE 12.5 mph20.1 kmh 27.52 in931.9 mb 0.00 in0.0 mm 0.00 in/hr0.0 mm/hr 0.00 in0.0 mm
09:39 AM 67.0°F19.4°C 39.2°F4.0°C 36% 3.4 mph NW5.5 kmh NW 12.5 mph20.1 kmh 27.52 in931.9 mb 0.00 in0.0 mm 0.00 in/hr0.0 mm/hr 0.00 in0.0 mm
09:44 AM 67.2°F19.6°C 39.4°F4.1°C 36% 4.5 mph NNW7.2 kmh NNW 10.3 mph16.6 kmh 27.52 in931.9 mb 0.00 in0.0 mm 0.00 in/hr0.0 mm/hr 0.00 in0.0 mm
09:49 AM 67.5°F19.7°C 39.7°F4.3°C 36% 6.0 mph N9.7 kmh N 13.9 mph22.4 kmh 27.52 in931.9 mb 0.00 in0.0 mm 0.00 in/hr0.0 mm/hr 0.00 in0.0 mm
09:54 AM 67.7°F19.8°C 39.8°F4.3°C 36% 4.4 mph NW7.1 kmh NW 13.9 mph22.4 kmh 27.52 in931.9 mb 0.00 in0.0 mm 0.00 in/hr0.0 mm/hr 0.00 in0.0 mm
09:59 AM 67.9°F19.9°C 40.0°F4.4°C 36% 3.7 mph NW6.0 kmh NW 13.0 mph20.9 kmh 27.55 in933.0 mb 0.00 in0.0 mm 0.00 in/hr0.0 mm/hr 0.00 in0.0 mm
10:04 AM 68.2°F20.1°C 39.6°F4.2°C 35% 4.9 mph WSW7.9 kmh WSW 9.8 mph15.8 kmh 27.55 in933.0 mb 0.00 in0.0 mm 0.00 in/hr0.0 mm/hr 0.00 in0.0 mm
10:09 AM 68.5°F20.3°C 39.8°F4.3°C 35% 4.7 mph SW7.6 kmh SW 10.3 mph16.6 kmh 27.55 in933.0 mb 0.00 in0.0 mm 0.00 in/hr0.0 mm/hr 0.00 in0.0 mm
10:14 AM 68.8°F20.4°C 40.1°F4.5°C 35% 6.9 mph SW11.1 kmh SW 11.0 mph17.7 kmh 27.55 in933.0 mb 0.00 in0.0 mm 0.00 in/hr0.0 mm/hr 0.00 in0.0 mm
10:19 AM 69.0°F20.6°C 40.3°F4.6°C 35% 4.2 mph WSW6.8 kmh WSW 11.0 mph17.7 kmh 27.55 in933.0 mb 0.00 in0.0 mm 0.00 in/hr0.0 mm/hr 0.00 in0.0 mm
10:24 AM 69.3°F20.7°C 40.5°F4.7°C 35% 4.5 mph NW7.2 kmh NW 10.7 mph17.2 kmh 27.55 in933.0 mb 0.00 in0.0 mm 0.00 in/hr0.0 mm/hr 0.00 in0.0 mm
10:29 AM 69.5°F20.8°C 40.3°F4.6°C 34% 4.7 mph W7.6 kmh W 8.7 mph14.0 kmh 27.55 in933.0 mb 0.00 in0.0 mm 0.00 in/hr0.0 mm/hr 0.00 in0.0 mm
10:34 AM 69.7°F20.9°C 40.1°F4.5°C 34% 7.4 mph SSE11.9 kmh SSE 15.2 mph24.5 kmh 27.55 in933.0 mb 0.00 in0.0 mm 0.00 in/hr0.0 mm/hr 0.00 in0.0 mm
10:39 AM 69.8°F21.0°C 40.2°F4.6°C 34% 3.7 mph SW6.0 kmh SW 15.2 mph24.5 kmh 27.55 in933.0 mb 0.00 in0.0 mm 0.00 in/hr0.0 mm/hr 0.00 in0.0 mm
10:44 AM 70.0°F21.1°C 40.4°F4.7°C 34% 6.2 mph SW10.0 kmh SW 14.8 mph23.8 kmh 27.55 in933.0 mb 0.00 in0.0 mm 0.00 in/hr0.0 mm/hr 0.00 in0.0 mm
10:49 AM 70.0°F21.1°C 40.4°F4.7°C 34% 6.2 mph W10.0 kmh W 13.6 mph21.9 kmh 27.55 in933.0 mb 0.00 in0.0 mm 0.00 in/hr0.0 mm/hr 0.00 in0.0 mm
10:54 AM 70.0°F21.1°C 40.4°F4.7°C 34% 3.7 mph SW6.0 kmh SW 11.4 mph18.3 kmh 27.55 in933.0 mb 0.00 in0.0 mm 0.00 in/hr0.0 mm/hr 0.00 in0.0 mm
10:59 AM 70.0°F21.1°C 40.4°F4.7°C 34% 4.2 mph SW6.8 kmh SW 10.5 mph16.9 kmh 27.55 in933.0 mb 0.00 in0.0 mm 0.00 in/hr0.0 mm/hr 0.00 in0.0 mm
11:04 AM 70.0°F21.1°C 40.4°F4.7°C 34% 3.6 mph WSW5.8 kmh WSW 10.5 mph16.9 kmh 27.55 in933.0 mb 0.00 in0.0 mm 0.00 in/hr0.0 mm/hr 0.00 in0.0 mm
11:09 AM 70.0°F21.1°C 40.4°F4.7°C 34% 3.6 mph NNW5.8 kmh NNW 8.5 mph13.7 kmh 27.55 in933.0 mb 0.00 in0.0 mm 0.00 in/hr0.0 mm/hr 0.00 in0.0 mm
11:14 AM 70.0°F21.1°C 40.4°F4.7°C 34% 3.6 mph NNE5.8 kmh NNE 8.9 mph14.3 kmh 27.55 in933.0 mb 0.00 in0.0 mm 0.00 in/hr0.0 mm/hr 0.00 in0.0 mm
11:19 AM 70.0°F21.1°C 40.4°F4.7°C 34% 3.8 mph NNE6.1 kmh NNE 8.9 mph14.3 kmh 27.55 in933.0 mb 0.00 in0.0 mm 0.00 in/hr0.0 mm/hr 0.00 in0.0 mm
11:24 AM 70.1°F21.2°C 40.5°F4.7°C 34% 3.6 mph SE5.8 kmh SE 7.4 mph11.9 kmh 27.55 in933.0 mb 0.00 in0.0 mm 0.00 in/hr0.0 mm/hr 0.00 in0.0 mm
11:29 AM 70.3°F21.3°C 40.6°F4.8°C 34% 4.1 mph NE6.6 kmh NE 8.1 mph13.0 kmh 27.55 in933.0 mb 0.00 in0.0 mm 0.00 in/hr0.0 mm/hr 0.00 in0.0 mm
11:34 AM 70.5°F21.4°C 40.8°F4.9°C 34% 5.3 mph NW8.5 kmh NW 10.5 mph16.9 kmh 27.55 in933.0 mb 0.00 in0.0 mm 0.00 in/hr0.0 mm/hr 0.00 in0.0 mm
11:39 AM 70.7°F21.5°C 40.2°F4.6°C 33% 7.6 mph N12.2 kmh N 12.5 mph20.1 kmh 27.55 in933.0 mb 0.00 in0.0 mm 0.00 in/hr0.0 mm/hr 0.00 in0.0 mm
11:44 AM 70.5°F21.4°C 40.1°F4.5°C 33% 3.0 mph WNW4.8 kmh WNW 12.5 mph20.1 kmh 27.55 in933.0 mb 0.00 in0.0 mm 0.00 in/hr0.0 mm/hr 0.00 in0.0 mm
11:49 AM 70.5°F21.4°C 40.7°F4.8°C 34% 2.7 mph NNE4.3 kmh NNE 8.1 mph13.0 kmh 27.55 in933.0 mb 0.00 in0.0 mm 0.00 in/hr0.0 mm/hr 0.00 in0.0 mm
11:54 AM 70.5°F21.4°C 40.8°F4.9°C 34% 2.9 mph NNE4.7 kmh NNE 5.8 mph9.3 kmh 27.55 in933.0 mb 0.00 in0.0 mm 0.00 in/hr0.0 mm/hr 0.00 in0.0 mm
11:59 AM 70.4°F21.3°C 40.7°F4.8°C 34% 2.6 mph N4.2 kmh N 5.8 mph9.3 kmh 27.55 in933.0 mb 0.00 in0.0 mm 0.00 in/hr0.0 mm/hr 0.00 in0.0 mm
12:04 PM 70.2°F21.2°C 40.6°F4.8°C 34% 4.0 mph E6.4 kmh E 8.5 mph13.7 kmh 27.55 in933.0 mb 0.00 in0.0 mm 0.00 in/hr0.0 mm/hr 0.00 in0.0 mm
12:09 PM 70.2°F21.2°C 40.5°F4.7°C 34% 3.3 mph NNE5.3 kmh NNE 8.5 mph13.7 kmh 27.55 in933.0 mb 0.00 in0.0 mm 0.00 in/hr0.0 mm/hr 0.00 in0.0 mm
12:14 PM 70.2°F21.2°C 40.5°F4.7°C 34% 4.2 mph NE6.8 kmh NE 7.4 mph11.9 kmh 27.52 in931.9 mb 0.00 in0.0 mm 0.00 in/hr0.0 mm/hr 0.00 in0.0 mm
12:19 PM 70.3°F21.3°C 40.6°F4.8°C 34% 2.2 mph NE3.5 kmh NE 9.6 mph15.4 kmh 27.52 in931.9 mb 0.00 in0.0 mm 0.00 in/hr0.0 mm/hr 0.00 in0.0 mm
12:24 PM 70.3°F21.3°C 40.7°F4.8°C 34% 3.1 mph NNE5.0 kmh NNE 9.6 mph15.4 kmh 27.52 in931.9 mb 0.00 in0.0 mm 0.00 in/hr0.0 mm/hr 0.00 in0.0 mm
12:29 PM 70.5°F21.4°C 40.8°F4.9°C 34% 3.5 mph N5.6 kmh N 9.6 mph15.4 kmh 27.52 in931.9 mb 0.00 in0.0 mm 0.00 in/hr0.0 mm/hr 0.00 in0.0 mm
12:34 PM 70.6°F21.4°C 40.9°F4.9°C 34% 4.6 mph N7.4 kmh N 7.4 mph11.9 kmh 27.52 in931.9 mb 0.00 in0.0 mm 0.00 in/hr0.0 mm/hr 0.00 in0.0 mm
12:39 PM 70.7°F21.5°C 41.0°F5.0°C 34% 3.3 mph NW5.3 kmh NW 7.4 mph11.9 kmh 27.52 in931.9 mb 0.00 in0.0 mm 0.00 in/hr0.0 mm/hr 0.00 in0.0 mm
12:44 PM 70.8°F21.6°C 41.1°F5.1°C 34% 3.1 mph NE5.0 kmh NE 8.1 mph13.0 kmh 27.52 in931.9 mb 0.00 in0.0 mm 0.00 in/hr0.0 mm/hr 0.00 in0.0 mm
12:49 PM 70.9°F21.6°C 41.1°F5.1°C 34% 4.5 mph N7.2 kmh N 8.7 mph14.0 kmh 27.52 in931.9 mb 0.00 in0.0 mm 0.00 in/hr0.0 mm/hr 0.00 in0.0 mm
12:54 PM 70.9°F21.6°C 41.2°F5.1°C 34% 3.3 mph N5.3 kmh N 8.7 mph14.0 kmh 27.52 in931.9 mb 0.00 in0.0 mm 0.00 in/hr0.0 mm/hr 0.00 in0.0 mm
12:59 PM 71.1°F21.7°C 41.3°F5.2°C 34% 4.6 mph N7.4 kmh N 7.8 mph12.6 kmh 27.52 in931.9 mb 0.00 in0.0 mm 0.00 in/hr0.0 mm/hr 0.00 in0.0 mm
01:04 PM 71.1°F21.7°C 41.3°F5.2°C 34% 1.9 mph NNW3.1 kmh NNW 7.8 mph12.6 kmh 27.52 in931.9 mb 0.00 in0.0 mm 0.00 in/hr0.0 mm/hr 0.00 in0.0 mm
01:09 PM 71.1°F21.7°C 41.3°F5.2°C 34% 2.3 mph N3.7 kmh N 6.0 mph9.7 kmh 27.52 in931.9 mb 0.00 in0.0 mm 0.00 in/hr0.0 mm/hr 0.00 in0.0 mm
01:14 PM 71.1°F21.7°C 41.3°F5.2°C 34% 4.0 mph WNW6.4 kmh WNW 8.5 mph13.7 kmh 27.49 in930.9 mb 0.00 in0.0 mm 0.00 in/hr0.0 mm/hr 0.00 in0.0 mm
01:19 PM 71.0°F21.7°C 41.2°F5.1°C 34% 2.5 mph SE4.0 kmh SE 8.5 mph13.7 kmh 27.49 in930.9 mb 0.00 in0.0 mm 0.00 in/hr0.0 mm/hr 0.00 in0.0 mm
01:24 PM 70.9°F21.6°C 41.1°F5.1°C 34% 3.8 mph NW6.1 kmh NW 7.4 mph11.9 kmh 27.49 in930.9 mb 0.00 in0.0 mm 0.00 in/hr0.0 mm/hr 0.00 in0.0 mm
01:29 PM 70.8°F21.6°C 41.1°F5.1°C 34% 2.4 mph NE3.9 kmh NE 7.4 mph11.9 kmh 27.49 in930.9 mb 0.00 in0.0 mm 0.00 in/hr0.0 mm/hr 0.00 in0.0 mm
01:34 PM 70.7°F21.5°C 41.0°F5.0°C 34% 3.5 mph NNW5.6 kmh NNW 7.2 mph11.6 kmh 27.49 in930.9 mb 0.00 in0.0 mm 0.00 in/hr0.0 mm/hr 0.00 in0.0 mm
01:39 PM 70.5°F21.4°C 40.8°F4.9°C 34% 2.4 mph SE3.9 kmh SE 7.2 mph11.6 kmh 27.49 in930.9 mb 0.00 in0.0 mm 0.00 in/hr0.0 mm/hr 0.00 in0.0 mm
01:44 PM 70.5°F21.4°C 40.8°F4.9°C 34% 3.3 mph NW5.3 kmh NW 8.7 mph14.0 kmh 27.49 in930.9 mb 0.00 in0.0 mm 0.00 in/hr0.0 mm/hr 0.00 in0.0 mm
01:49 PM 70.5°F21.4°C 40.8°F4.9°C 34% 2.9 mph SSE4.7 kmh SSE 8.7 mph14.0 kmh 27.49 in930.9 mb 0.00 in0.0 mm 0.00 in/hr0.0 mm/hr 0.00 in0.0 mm
01:54 PM 70.5°F21.4°C 40.8°F4.9°C 34% 2.4 mph W3.9 kmh W 8.5 mph13.7 kmh 27.49 in930.9 mb 0.00 in0.0 mm 0.00 in/hr0.0 mm/hr 0.00 in0.0 mm
01:59 PM 70.5°F21.4°C 40.8°F4.9°C 34% 1.4 mph WSW2.3 kmh WSW 8.5 mph13.7 kmh 27.46 in929.9 mb 0.00 in0.0 mm 0.00 in/hr0.0 mm/hr 0.00 in0.0 mm
02:04 PM 70.4°F21.3°C 40.7°F4.8°C 34% 3.3 mph NNE5.3 kmh NNE 6.7 mph10.8 kmh 27.46 in929.9 mb 0.00 in0.0 mm 0.00 in/hr0.0 mm/hr 0.00 in0.0 mm
02:09 PM 70.3°F21.3°C 40.7°F4.8°C 34% 2.5 mph S4.0 kmh S 6.7 mph10.8 kmh 27.46 in929.9 mb 0.00 in0.0 mm 0.00 in/hr0.0 mm/hr 0.00 in0.0 mm
02:14 PM 70.2°F21.2°C 40.5°F4.7°C 34% 2.8 mph NNW4.5 kmh NNW 6.0 mph9.7 kmh 27.46 in929.9 mb 0.00 in0.0 mm 0.00 in/hr0.0 mm/hr 0.00 in0.0 mm
02:19 PM 69.9°F21.1°C 40.9°F4.9°C 35% 2.9 mph NNE4.7 kmh NNE 6.0 mph9.7 kmh 27.46 in929.9 mb 0.00 in0.0 mm 0.00 in/hr0.0 mm/hr 0.00 in0.0 mm
02:24 PM 69.6°F20.9°C 41.2°F5.1°C 36% 6.5 mph NNE10.5 kmh NNE 10.7 mph17.2 kmh 27.46 in929.9 mb 0.00 in0.0 mm 0.00 in/hr0.0 mm/hr 0.00 in0.0 mm
02:29 PM 69.4°F20.8°C 40.9°F4.9°C 35% 7.0 mph NNW11.3 kmh NNW 11.4 mph18.3 kmh 27.49 in930.9 mb 0.00 in0.0 mm 0.00 in/hr0.0 mm/hr 0.00 in0.0 mm
02:34 PM 69.1°F20.6°C 40.3°F4.6°C 35% 6.4 mph NE10.3 kmh NE 11.4 mph18.3 kmh 27.49 in930.9 mb 0.00 in0.0 mm 0.00 in/hr0.0 mm/hr 0.00 in0.0 mm
02:39 PM 68.6°F20.3°C 39.9°F4.4°C 35% 5.5 mph NE8.9 kmh NE 10.7 mph17.2 kmh 27.49 in930.9 mb 0.00 in0.0 mm 0.00 in/hr0.0 mm/hr 0.00 in0.0 mm
02:44 PM 68.2°F20.1°C 39.8°F4.3°C 36% 6.8 mph NNE10.9 kmh NNE 10.7 mph17.2 kmh 27.52 in931.9 mb 0.00 in0.0 mm 0.00 in/hr0.0 mm/hr 0.00 in0.0 mm
02:49 PM 67.6°F19.8°C 39.8°F4.3°C 36% 4.8 mph NE7.7 kmh NE 9.8 mph15.8 kmh 27.52 in931.9 mb 0.00 in0.0 mm 0.00 in/hr0.0 mm/hr 0.00 in0.0 mm
02:54 PM 67.2°F19.6°C 39.3°F4.1°C 36% 4.5 mph NNE7.2 kmh NNE 9.8 mph15.8 kmh 27.52 in931.9 mb 0.00 in0.0 mm 0.00 in/hr0.0 mm/hr 0.00 in0.0 mm
02:59 PM 66.7°F19.3°C 39.0°F3.9°C 36% 6.0 mph NNE9.7 kmh NNE 10.5 mph16.9 kmh 27.52 in931.9 mb 0.00 in0.0 mm 0.00 in/hr0.0 mm/hr 0.00 in0.0 mm
03:04 PM 66.3°F19.1°C 38.9°F3.8°C 37% 6.1 mph NE9.8 kmh NE 10.5 mph16.9 kmh 27.52 in931.9 mb 0.00 in0.0 mm 0.00 in/hr0.0 mm/hr 0.00 in0.0 mm
03:09 PM 65.9°F18.8°C 38.9°F3.8°C 37% 4.3 mph NE6.9 kmh NE 10.3 mph16.6 kmh 27.52 in931.9 mb 0.04 in1.0 mm 0.48 in/hr12.2 mm/hr 0.04 in1.0 mm
03:14 PM 65.6°F18.7°C 38.6°F3.7°C 37% 4.0 mph NNE6.4 kmh NNE 7.4 mph11.9 kmh 27.52 in931.9 mb 0.00 in0.0 mm 0.00 in/hr0.0 mm/hr 0.04 in1.0 mm
03:19 PM 65.2°F18.4°C 38.9°F3.8°C 38% 3.0 mph N4.8 kmh N 7.4 mph11.9 kmh 27.52 in931.9 mb 0.12 in3.0 mm 1.44 in/hr36.6 mm/hr 0.12 in3.0 mm
03:24 PM 64.9°F18.3°C 38.7°F3.7°C 38% 3.5 mph NNE5.6 kmh NNE 7.2 mph11.6 kmh 27.52 in931.9 mb 0.12 in3.0 mm 0.00 in/hr0.0 mm/hr 0.12 in3.0 mm
03:29 PM 64.6°F18.1°C 38.4°F3.6°C 38% 4.2 mph NE6.8 kmh NE 11.0 mph17.7 kmh 27.58 in934.0 mb 0.00 in0.0 mm 0.00 in/hr0.0 mm/hr 0.16 in4.1 mm
03:34 PM 64.2°F17.9°C 38.1°F3.4°C 38% 3.5 mph SE5.6 kmh SE 11.0 mph17.7 kmh 27.58 in934.0 mb 0.00 in0.0 mm 0.00 in/hr0.0 mm/hr 0.16 in4.1 mm
03:39 PM 63.8°F17.7°C 37.8°F3.2°C 38% 4.9 mph ESE7.9 kmh ESE 7.8 mph12.6 kmh 27.58 in934.0 mb 0.21 in5.3 mm 2.52 in/hr64.0 mm/hr 0.21 in5.3 mm
03:44 PM 63.5°F17.5°C 38.2°F3.4°C 39% 2.7 mph NNE4.3 kmh NNE 7.8 mph12.6 kmh 27.55 in933.0 mb 0.00 in0.0 mm 0.00 in/hr0.0 mm/hr 0.37 in9.4 mm
03:49 PM 63.2°F17.3°C 37.9°F3.3°C 39% 6.4 mph NE10.3 kmh NE 10.7 mph17.2 kmh 27.55 in933.0 mb 0.00 in0.0 mm 0.00 in/hr0.0 mm/hr 0.37 in9.4 mm
03:54 PM 62.9°F17.2°C 37.4°F3.0°C 39% 5.6 mph NNE9.0 kmh NNE 10.7 mph17.2 kmh 27.55 in933.0 mb 0.00 in0.0 mm 0.00 in/hr0.0 mm/hr 0.37 in9.4 mm
03:59 PM 62.5°F16.9°C 37.2°F2.9°C 39% 4.0 mph NNW6.4 kmh NNW 8.7 mph14.0 kmh 27.55 in933.0 mb 0.25 in6.4 mm 3.00 in/hr76.2 mm/hr 0.29 in7.4 mm
04:04 PM 62.2°F16.8°C 37.0°F2.8°C 39% 5.2 mph N8.4 kmh N 8.7 mph14.0 kmh 27.55 in933.0 mb 0.00 in0.0 mm 0.00 in/hr0.0 mm/hr 0.62 in15.7 mm
04:09 PM 61.9°F16.6°C 36.7°F2.6°C 39% 5.1 mph NE8.2 kmh NE 9.4 mph15.1 kmh 27.55 in933.0 mb 0.00 in0.0 mm 0.00 in/hr0.0 mm/hr 0.62 in15.7 mm
04:14 PM 61.5°F16.4°C 36.4°F2.4°C 39% 3.7 mph E6.0 kmh E 9.4 mph15.1 kmh 27.55 in933.0 mb 0.00 in0.0 mm 0.00 in/hr0.0 mm/hr 0.62 in15.7 mm
04:19 PM 61.3°F16.3°C 36.1°F2.3°C 39% 3.1 mph NE5.0 kmh NE 7.6 mph12.2 kmh 27.55 in933.0 mb 0.00 in0.0 mm 0.00 in/hr0.0 mm/hr 0.62 in15.7 mm
04:24 PM 61.0°F16.1°C 35.9°F2.2°C 39% 3.7 mph NE6.0 kmh NE 9.6 mph15.4 kmh 27.55 in933.0 mb 0.25 in6.4 mm 3.00 in/hr76.2 mm/hr 0.37 in9.4 mm
04:29 PM 60.7°F15.9°C 35.6°F2.0°C 39% 4.7 mph ENE7.6 kmh ENE 9.6 mph15.4 kmh 27.58 in934.0 mb 0.24 in6.1 mm 0.00 in/hr0.0 mm/hr 0.41 in10.4 mm
04:34 PM 60.4°F15.8°C 35.6°F2.0°C 40% 2.2 mph NNE3.5 kmh NNE 6.5 mph10.5 kmh 27.58 in934.0 mb 0.00 in0.0 mm 0.00 in/hr0.0 mm/hr 0.87 in22.1 mm
04:39 PM 60.2°F15.7°C 35.8°F2.1°C 40% 1.8 mph NNE2.9 kmh NNE 4.9 mph7.9 kmh 27.58 in934.0 mb 0.00 in0.0 mm 0.00 in/hr0.0 mm/hr 0.87 in22.1 mm
04:44 PM 60.0°F15.6°C 35.7°F2.1°C 40% 1.5 mph WSW2.4 kmh WSW 4.9 mph7.9 kmh 27.58 in934.0 mb 0.00 in0.0 mm 0.00 in/hr0.0 mm/hr 0.87 in22.1 mm
04:49 PM 59.8°F15.4°C 35.5°F1.9°C 40% 3.0 mph N4.8 kmh N 4.9 mph7.9 kmh 27.58 in934.0 mb 0.00 in0.0 mm 0.00 in/hr0.0 mm/hr 0.87 in22.1 mm
04:54 PM 59.6°F15.3°C 35.3°F1.8°C 40% 2.9 mph NNE4.7 kmh NNE 5.8 mph9.3 kmh 27.58 in934.0 mb 0.00 in0.0 mm 0.00 in/hr0.0 mm/hr 0.87 in22.1 mm
04:59 PM 59.3°F15.2°C 35.0°F1.7°C 40% 3.2 mph N5.1 kmh N 6.5 mph10.5 kmh 27.58 in934.0 mb 0.00 in0.0 mm 0.00 in/hr0.0 mm/hr 0.87 in22.1 mm
05:04 PM 59.1°F15.1°C 34.8°F1.6°C 40% 3.7 mph SE6.0 kmh SE 7.6 mph12.2 kmh 27.58 in934.0 mb 0.16 in4.1 mm 0.17 in/hr4.3 mm/hr 0.45 in11.4 mm
05:09 PM 59.2°F15.1°C 34.9°F1.6°C 40% 2.3 mph N3.7 kmh N 7.6 mph12.2 kmh 27.58 in934.0 mb 0.00 in0.0 mm 0.00 in/hr0.0 mm/hr 1.03 in26.2 mm
05:14 PM 59.6°F15.3°C 35.3°F1.8°C 40% Calm Calm 5.4 mph8.7 kmh 27.55 in933.0 mb 0.00 in0.0 mm 0.00 in/hr0.0 mm/hr 1.03 in26.2 mm
05:19 PM 60.1°F15.6°C 35.6°F2.0°C 40% 2.2 mph SE3.5 kmh SE 3.1 mph5.0 kmh 27.55 in933.0 mb 0.00 in0.0 mm 0.00 in/hr0.0 mm/hr 1.03 in26.2 mm
05:24 PM 60.4°F15.8°C 35.4°F1.9°C 39% 1.7 mph E2.7 kmh E 2.9 mph4.7 kmh 27.55 in933.0 mb 0.00 in0.0 mm 0.00 in/hr0.0 mm/hr 1.03 in26.2 mm
05:29 PM 60.7°F15.9°C 35.6°F2.0°C 39% 1.5 mph E2.4 kmh E 4.3 mph6.9 kmh 27.55 in933.0 mb 0.17 in4.3 mm 2.04 in/hr51.8 mm/hr 0.58 in14.7 mm
05:34 PM 61.0°F16.1°C 35.4°F1.9°C 38% 4.0 mph NE6.4 kmh NE 6.5 mph10.5 kmh 27.55 in933.0 mb 0.00 in0.0 mm 0.00 in/hr0.0 mm/hr 1.20 in30.5 mm
05:39 PM 61.2°F16.2°C 35.4°F1.9°C 38% 3.9 mph NW6.3 kmh NW 6.5 mph10.5 kmh 27.55 in933.0 mb 0.00 in0.0 mm 0.00 in/hr0.0 mm/hr 1.20 in30.5 mm
05:44 PM 61.1°F16.2°C 34.6°F1.4°C 37% 2.2 mph E3.5 kmh E 4.3 mph6.9 kmh 27.55 in933.0 mb 0.00 in0.0 mm 0.00 in/hr0.0 mm/hr 1.20 in30.5 mm
05:49 PM 60.8°F16.0°C 35.0°F1.7°C 38% 2.2 mph NE3.5 kmh NE 4.3 mph6.9 kmh 27.55 in933.0 mb 0.00 in0.0 mm 0.00 in/hr0.0 mm/hr 1.20 in30.5 mm
05:54 PM 60.8°F16.0°C 34.9°F1.6°C 37% 2.6 mph N4.2 kmh N 3.4 mph5.5 kmh 27.55 in933.0 mb 0.00 in0.0 mm 0.00 in/hr0.0 mm/hr 1.20 in30.5 mm
05:59 PM 61.0°F16.1°C 34.5°F1.4°C 37% 1.8 mph E2.9 kmh E 3.6 mph5.8 kmh 27.55 in933.0 mb 0.00 in0.0 mm 0.00 in/hr0.0 mm/hr 1.20 in30.5 mm
06:04 PM 61.0°F16.1°C 34.5°F1.4°C 37% 2.9 mph E4.7 kmh E 4.0 mph6.4 kmh 27.55 in933.0 mb 0.17 in4.3 mm 0.19 in/hr4.8 mm/hr 0.62 in15.7 mm
06:09 PM 61.1°F16.2°C 34.6°F1.4°C 37% 2.9 mph NNE4.7 kmh NNE 4.0 mph6.4 kmh 27.55 in933.0 mb 0.00 in0.0 mm 0.00 in/hr0.0 mm/hr 1.37 in34.8 mm
06:14 PM 61.2°F16.2°C 34.7°F1.5°C 37% 1.9 mph ENE3.1 kmh ENE 4.0 mph6.4 kmh 27.55 in933.0 mb 0.20 in5.1 mm 2.40 in/hr61.0 mm/hr 0.70 in17.8 mm
06:19 PM 61.4°F16.3°C 34.7°F1.5°C 36% 0.6 mph SSE1.0 kmh SSE 3.1 mph5.0 kmh 27.55 in933.0 mb 0.00 in0.0 mm 0.00 in/hr0.0 mm/hr 1.57 in39.9 mm
06:24 PM 61.5°F16.4°C 34.3°F1.3°C 36% Calm Calm 3.1 mph5.0 kmh 27.55 in933.0 mb 0.00 in0.0 mm 0.00 in/hr0.0 mm/hr 1.57 in39.9 mm
06:29 PM 61.2°F16.2°C 34.0°F1.1°C 36% 2.0 mph NNW3.2 kmh NNW 1.6 mph2.6 kmh 27.58 in934.0 mb 0.00 in0.0 mm 0.00 in/hr0.0 mm/hr 1.57 in39.9 mm
06:34 PM 61.0°F16.1°C 33.9°F1.1°C 36% Calm Calm 1.6 mph2.6 kmh 27.58 in934.0 mb 0.17 in4.3 mm 2.04 in/hr51.8 mm/hr 0.75 in19.1 mm
06:39 PM 61.0°F16.1°C 33.9°F1.1°C 36% Calm Calm 1.6 mph2.6 kmh 27.58 in934.0 mb 0.00 in0.0 mm 0.00 in/hr0.0 mm/hr 1.74 in44.2 mm
06:44 PM 60.9°F16.1°C 34.1°F1.2°C 37% Calm Calm 1.6 mph2.6 kmh 27.58 in934.0 mb 0.00 in0.0 mm 0.00 in/hr0.0 mm/hr 1.74 in44.2 mm
06:49 PM 60.9°F16.1°C 34.0°F1.1°C 36% 1.0 mph NW1.6 kmh NW 3.4 mph5.5 kmh 27.58 in934.0 mb 0.00 in0.0 mm 0.00 in/hr0.0 mm/hr 1.74 in44.2 mm
06:54 PM 61.0°F16.1°C 33.9°F1.1°C 36% 2.2 mph SE3.5 kmh SE 3.4 mph5.5 kmh 27.58 in934.0 mb 0.00 in0.0 mm 0.00 in/hr0.0 mm/hr 1.74 in44.2 mm
06:59 PM 61.0°F16.1°C 33.9°F1.1°C 36% 1.1 mph E1.8 kmh E 3.4 mph5.5 kmh 27.55 in933.0 mb 0.00 in0.0 mm 0.00 in/hr0.0 mm/hr 1.74 in44.2 mm
07:04 PM 61.0°F16.1°C 33.9°F1.1°C 36% 2.5 mph SE4.0 kmh SE 2.2 mph3.5 kmh 27.55 in933.0 mb 0.00 in0.0 mm 0.00 in/hr0.0 mm/hr 1.74 in44.2 mm
07:09 PM 61.1°F16.2°C 34.0°F1.1°C 36% 1.3 mph NW2.1 kmh NW 2.2 mph3.5 kmh 27.55 in933.0 mb 0.00 in0.0 mm 0.00 in/hr0.0 mm/hr 1.74 in44.2 mm
07:14 PM 61.2°F16.2°C 34.0°F1.1°C 36% Calm Calm 2.2 mph3.5 kmh 27.55 in933.0 mb 0.17 in4.3 mm 2.04 in/hr51.8 mm/hr 0.87 in22.1 mm
07:19 PM 61.2°F16.2°C 34.1°F1.2°C 36% Calm Calm 1.6 mph2.6 kmh 27.55 in933.0 mb 0.00 in0.0 mm 0.00 in/hr0.0 mm/hr 1.91 in48.5 mm
07:24 PM 61.5°F16.4°C 33.8°F1.0°C 35% 1.0 mph SE1.6 kmh SE 2.7 mph4.3 kmh 27.55 in933.0 mb 0.17 in4.3 mm 2.04 in/hr51.8 mm/hr 0.87 in22.1 mm
07:29 PM 61.3°F16.3°C 33.4°F0.8°C 35% 1.1 mph SW1.8 kmh SW 2.9 mph4.7 kmh 27.55 in933.0 mb 0.00 in0.0 mm 0.00 in/hr0.0 mm/hr 2.08 in52.8 mm
07:34 PM 60.9°F16.1°C 33.4°F0.8°C 36% 1.9 mph NE3.1 kmh NE 3.6 mph5.8 kmh 27.55 in933.0 mb 0.00 in0.0 mm 0.00 in/hr0.0 mm/hr 2.08 in52.8 mm
07:39 PM 60.6°F15.9°C 33.6°F0.9°C 36% 1.3 mph NE2.1 kmh NE 3.6 mph5.8 kmh 27.55 in933.0 mb 0.12 in3.0 mm 1.44 in/hr36.6 mm/hr 0.87 in22.1 mm
07:44 PM 60.6°F15.9°C 33.5°F0.8°C 36% 1.9 mph NE3.1 kmh NE 3.8 mph6.1 kmh 27.58 in934.0 mb 0.00 in0.0 mm 0.00 in/hr0.0 mm/hr 2.20 in55.9 mm
07:49 PM 60.6°F15.9°C 33.5°F0.8°C 36% Calm Calm 3.8 mph6.1 kmh 27.58 in934.0 mb 0.00 in0.0 mm 0.00 in/hr0.0 mm/hr 2.20 in55.9 mm
07:54 PM 60.7°F15.9°C 33.6°F0.9°C 36% 3.1 mph N5.0 kmh N 3.4 mph5.5 kmh 27.58 in934.0 mb 0.16 in4.1 mm 1.92 in/hr48.8 mm/hr 0.91 in23.1 mm
07:59 PM 60.9°F16.1°C 33.4°F0.8°C 35% 1.3 mph E2.1 kmh E 3.4 mph5.5 kmh 27.58 in934.0 mb 0.00 in0.0 mm 0.00 in/hr0.0 mm/hr 2.36 in59.9 mm
08:04 PM 61.0°F16.1°C 33.2°F0.7°C 35% 2.0 mph E3.2 kmh E 3.1 mph5.0 kmh 27.58 in934.0 mb 0.00 in0.0 mm 0.00 in/hr0.0 mm/hr 2.36 in59.9 mm
08:09 PM 61.0°F16.1°C 33.2°F0.7°C 35% 0.6 mph SE1.0 kmh SE 3.1 mph5.0 kmh 27.58 in934.0 mb 0.16 in4.1 mm 1.92 in/hr48.8 mm/hr 0.91 in23.1 mm
08:14 PM 61.1°F16.2°C 33.3°F0.7°C 35% 1.5 mph E2.4 kmh E 2.2 mph3.5 kmh 27.58 in934.0 mb 0.00 in0.0 mm 0.00 in/hr0.0 mm/hr 2.52 in64.0 mm
08:19 PM 61.2°F16.2°C 33.3°F0.7°C 35% 0.3 mph ENE0.5 kmh ENE 2.2 mph3.5 kmh 27.58 in934.0 mb 0.04 in1.0 mm 0.48 in/hr12.2 mm/hr 0.91 in23.1 mm
08:24 PM 61.2°F16.2°C 33.4°F0.8°C 35% Calm Calm 2.2 mph3.5 kmh 27.58 in934.0 mb 0.04 in1.0 mm 0.00 in/hr0.0 mm/hr 0.91 in23.1 mm
08:29 PM 61.6°F16.4°C 33.7°F0.9°C 35% Calm Calm 1.6 mph2.6 kmh 27.58 in934.0 mb 0.00 in0.0 mm 0.00 in/hr0.0 mm/hr 2.56 in65.0 mm
08:34 PM 61.4°F16.3°C 33.5°F0.8°C 35% 1.3 mph ENE2.1 kmh ENE 2.2 mph3.5 kmh 27.58 in934.0 mb 0.04 in1.0 mm 0.48 in/hr12.2 mm/hr 0.91 in23.1 mm
08:39 PM 61.0°F16.1°C 33.2°F0.7°C 35% 1.3 mph N2.1 kmh N 3.1 mph5.0 kmh 27.58 in934.0 mb 0.00 in0.0 mm 0.00 in/hr0.0 mm/hr 2.60 in66.0 mm
08:44 PM 60.8°F16.0°C 33.0°F0.6°C 35% 1.8 mph SSW2.9 kmh SSW 3.1 mph5.0 kmh 27.55 in933.0 mb 0.00 in0.0 mm 0.00 in/hr0.0 mm/hr 2.60 in66.0 mm
08:49 PM 60.8°F16.0°C 33.3°F0.7°C 36% Calm Calm 2.9 mph4.7 kmh 27.55 in933.0 mb 0.04 in1.0 mm 0.48 in/hr12.2 mm/hr 0.91 in23.1 mm
08:54 PM 61.0°F16.1°C 33.3°F0.7°C 35% Calm Calm 2.0 mph3.2 kmh 27.55 in933.0 mb 0.00 in0.0 mm 0.00 in/hr0.0 mm/hr 0.91 in23.1 mm
08:59 PM 61.0°F16.1°C 33.2°F0.7°C 35% 0.9 mph NE1.4 kmh NE 4.0 mph6.4 kmh 27.58 in934.0 mb 0.00 in0.0 mm 0.00 in/hr0.0 mm/hr 2.64 in67.1 mm
09:04 PM 61.0°F16.1°C 33.2°F0.7°C 35% Calm Calm 4.0 mph6.4 kmh 27.58 in934.0 mb 0.00 in0.0 mm 0.00 in/hr0.0 mm/hr 2.64 in67.1 mm
09:09 PM 61.0°F16.1°C 33.2°F0.7°C 35% Calm Calm 2.7 mph4.3 kmh 27.58 in934.0 mb 0.00 in0.0 mm 0.00 in/hr0.0 mm/hr 2.64 in67.1 mm
09:14 PM 61.0°F16.1°C 33.2°F0.7°C 35% Calm Calm -- 27.55 in933.0 mb 0.00 in0.0 mm 0.00 in/hr0.0 mm/hr 2.64 in67.1 mm
09:19 PM 61.1°F16.2°C 33.2°F0.7°C 35% Calm Calm -- 27.55 in933.0 mb 0.00 in0.0 mm 0.00 in/hr0.0 mm/hr 2.64 in67.1 mm
09:24 PM 61.2°F16.2°C 33.3°F0.7°C 35% 0.7 mph NE1.1 kmh NE 2.9 mph4.7 kmh 27.55 in933.0 mb 0.00 in0.0 mm 0.00 in/hr0.0 mm/hr 2.64 in67.1 mm
09:29 PM 61.2°F16.2°C 33.3°F0.7°C 35% Calm Calm 2.9 mph4.7 kmh 27.55 in933.0 mb 0.00 in0.0 mm 0.00 in/hr0.0 mm/hr 2.64 in67.1 mm
09:34 PM 61.2°F16.2°C 33.3°F0.7°C 35% 1.0 mph NNW1.6 kmh NNW 2.5 mph4.0 kmh 27.55 in933.0 mb 0.00 in0.0 mm 0.00 in/hr0.0 mm/hr 2.64 in67.1 mm
09:39 PM 61.2°F16.2°C 33.3°F0.7°C 35% Calm Calm 2.5 mph4.0 kmh 27.55 in933.0 mb 0.00 in0.0 mm 0.00 in/hr0.0 mm/hr 2.64 in67.1 mm
09:44 PM 61.2°F16.2°C 33.3°F0.7°C 35% Calm Calm -- 27.55 in933.0 mb 0.00 in0.0 mm 0.00 in/hr0.0 mm/hr 2.64 in67.1 mm
09:49 PM 61.2°F16.2°C 33.4°F0.8°C 35% Calm Calm -- 27.55 in933.0 mb 0.00 in0.0 mm 0.00 in/hr0.0 mm/hr 2.64 in67.1 mm
09:54 PM 61.3°F16.3°C 33.5°F0.8°C 35% Calm Calm -- 27.55 in933.0 mb 0.13 in3.3 mm 1.56 in/hr39.6 mm/hr 1.04 in26.4 mm
09:59 PM 61.3°F16.3°C 33.5°F0.8°C 35% Calm Calm -- 27.55 in933.0 mb 0.00 in0.0 mm 0.00 in/hr0.0 mm/hr 2.77 in70.4 mm
10:04 PM 61.3°F16.3°C 33.1°F0.6°C 34% Calm Calm -- 27.55 in933.0 mb 0.00 in0.0 mm 0.00 in/hr0.0 mm/hr 2.77 in70.4 mm
10:09 PM 61.3°F16.3°C 32.8°F0.4°C 34% Calm Calm -- 27.55 in933.0 mb 0.00 in0.0 mm 0.00 in/hr0.0 mm/hr 2.77 in70.4 mm
10:14 PM 61.3°F16.3°C 32.8°F0.4°C 34% Calm Calm 1.1 mph1.8 kmh 27.55 in933.0 mb 0.00 in0.0 mm 0.00 in/hr0.0 mm/hr 2.77 in70.4 mm
10:19 PM 61.3°F16.3°C 32.7°F0.4°C 34% 0.1 mph NE0.2 kmh NE 2.0 mph3.2 kmh 27.55 in933.0 mb 0.00 in0.0 mm 0.00 in/hr0.0 mm/hr 2.77 in70.4 mm
10:24 PM 61.3°F16.3°C 32.7°F0.4°C 34% Calm Calm 2.0 mph3.2 kmh 27.55 in933.0 mb 0.00 in0.0 mm 0.00 in/hr0.0 mm/hr 2.77 in70.4 mm
10:29 PM 61.3°F16.3°C 32.7°F0.4°C 34% Calm Calm 1.1 mph1.8 kmh 27.52 in931.9 mb 0.00 in0.0 mm 0.00 in/hr0.0 mm/hr 2.77 in70.4 mm
10:34 PM 61.2°F16.2°C 32.6°F0.3°C 34% Calm Calm -- 27.52 in931.9 mb 0.00 in0.0 mm 0.00 in/hr0.0 mm/hr 2.77 in70.4 mm
10:39 PM 61.3°F16.3°C 32.8°F0.4°C 34% Calm Calm -- 27.52 in931.9 mb 0.00 in0.0 mm 0.00 in/hr0.0 mm/hr 2.77 in70.4 mm
10:44 PM 61.3°F16.3°C 32.8°F0.4°C 34% Calm Calm 0.9 mph1.4 kmh 27.55 in933.0 mb 0.00 in0.0 mm 0.00 in/hr0.0 mm/hr 2.77 in70.4 mm
10:49 PM 61.3°F16.3°C 32.8°F0.4°C 34% Calm Calm 0.9 mph1.4 kmh 27.55 in933.0 mb 0.00 in0.0 mm 0.00 in/hr0.0 mm/hr 2.77 in70.4 mm
10:54 PM 61.3°F16.3°C 32.8°F0.4°C 34% 1.1 mph ESE1.8 kmh ESE 2.5 mph4.0 kmh 27.55 in933.0 mb 0.00 in0.0 mm 0.00 in/hr0.0 mm/hr 2.77 in70.4 mm
10:59 PM 61.2°F16.2°C 32.7°F0.4°C 34% Calm Calm 2.5 mph4.0 kmh 27.55 in933.0 mb 0.00 in0.0 mm 0.00 in/hr0.0 mm/hr 2.77 in70.4 mm
11:04 PM 61.3°F16.3°C 32.8°F0.4°C 34% 0.7 mph SW1.1 kmh SW 2.7 mph4.3 kmh 27.55 in933.0 mb 0.00 in0.0 mm 0.00 in/hr0.0 mm/hr 2.77 in70.4 mm
11:09 PM 61.3°F16.3°C 32.7°F0.4°C 34% Calm Calm 2.7 mph4.3 kmh 27.55 in933.0 mb 0.00 in0.0 mm 0.00 in/hr0.0 mm/hr 2.77 in70.4 mm
11:14 PM 61.3°F16.3°C 32.8°F0.4°C 34% Calm Calm 1.3 mph2.1 kmh 27.55 in933.0 mb 0.00 in0.0 mm 0.00 in/hr0.0 mm/hr 2.77 in70.4 mm
11:19 PM 61.3°F16.3°C 32.7°F0.4°C 34% 1.6 mph NE2.6 kmh NE 2.5 mph4.0 kmh 27.55 in933.0 mb 0.00 in0.0 mm 0.00 in/hr0.0 mm/hr 1.04 in26.4 mm
11:24 PM 61.2°F16.2°C 32.6°F0.3°C 34% 1.5 mph NE2.4 kmh NE 2.5 mph4.0 kmh 27.55 in933.0 mb 0.00 in0.0 mm 0.00 in/hr0.0 mm/hr 2.77 in70.4 mm
11:29 PM 61.2°F16.2°C 32.6°F0.3°C 34% 0.4 mph NE0.6 kmh NE 2.0 mph3.2 kmh 27.55 in933.0 mb 0.00 in0.0 mm 0.00 in/hr0.0 mm/hr 2.77 in70.4 mm
11:34 PM 61.2°F16.2°C 32.6°F0.3°C 34% Calm Calm 1.1 mph1.8 kmh 27.55 in933.0 mb 0.00 in0.0 mm 0.00 in/hr0.0 mm/hr 2.77 in70.4 mm
11:39 PM 61.2°F16.2°C 32.6°F0.3°C 34% Calm Calm -- 27.55 in933.0 mb 0.00 in0.0 mm 0.00 in/hr0.0 mm/hr 2.77 in70.4 mm
11:44 PM 61.2°F16.2°C 32.6°F0.3°C 34% Calm Calm -- 27.55 in933.0 mb 0.00 in0.0 mm 0.00 in/hr0.0 mm/hr 1.04 in26.4 mm
11:49 PM 61.1°F16.2°C 32.6°F0.3°C 34% Calm Calm -- 27.55 in933.0 mb 0.00 in0.0 mm 0.00 in/hr0.0 mm/hr 2.77 in70.4 mm
11:54 PM 61.1°F16.2°C 32.6°F0.3°C 34% Calm Calm -- 27.55 in933.0 mb 0.00 in0.0 mm 0.00 in/hr0.0 mm/hr 1.04 in26.4 mm
11:59 PM 61.2°F16.2°C 32.6°F0.3°C 34% Calm Calm -- 27.55 in933.0 mb 0.00 in0.0 mm 0.00 in/hr0.0 mm/hr 1.04 in26.4 mm